Time;durP1;ratioP1;P1;durP2;ratioP2;P2;SDS_P1;SDS_P2;PMS_P1;PMS_P2;Temp;Humidity;BMP_temperature;BMP_pressure;BME280_temperature;BME280_humidity;BME280_pressure;Samples;Min_cycle;Max_cycle;Signal;HPM_P1;HPM_P2
2023/12/10 00:02:05;;;;;;;8.70;7.55;;;;;;;19.57;40.74;100693.66;4620939;31;20405;-55
2023/12/10 00:04:33;;;;;;;7.88;6.50;;;;;;;19.56;40.75;100694.59;4611617;31;20056;-55
2023/12/10 00:07:01;;;;;;;7.85;7.05;;;;;;;19.57;40.75;100698.13;4618001;31;20401;-54
2023/12/10 00:09:28;;;;;;;8.48;7.13;;;;;;;19.56;40.89;100691.06;4621733;31;20052;-54
2023/12/10 00:11:56;;;;;;;8.00;7.18;;;;;;;19.54;40.78;100701.97;4620456;31;20058;-54
2023/12/10 00:14:26;;;;;;;8.07;7.30;;;;;;;19.55;40.81;100721.59;4619672;31;20059;-55
2023/12/10 00:16:53;;;;;;;7.88;7.07;;;;;;;19.52;40.82;100728.94;4619468;31;20535;-57
2023/12/10 00:19:21;;;;;;;7.57;6.80;;;;;;;19.51;40.86;100718.34;4621807;31;20060;-57
2023/12/10 00:21:49;;;;;;;8.60;7.68;;;;;;;19.51;40.69;100715.66;4620432;31;20064;-57
2023/12/10 00:24:17;;;;;;;7.95;7.15;;;;;;;19.50;40.70;100719.34;4612978;31;20068;-57
2023/12/10 00:26:45;;;;;;;8.00;7.20;;;;;;;19.49;40.78;100729.22;4614665;31;20056;-56
2023/12/10 00:29:12;;;;;;;8.70;7.30;;;;;;;19.48;40.92;100723.97;4621841;31;20067;-57
2023/12/10 00:31:43;;;;;;;9.52;8.60;;;;;;;19.47;40.75;100725.81;4619664;31;20059;-57
2023/12/10 00:34:11;;;;;;;8.63;7.47;;;;;;;19.47;40.63;100724.97;4619269;31;20063;-57
2023/12/10 00:36:39;;;;;;;9.00;8.10;;;;;;;19.47;40.82;100738.38;4619521;31;20059;-58
2023/12/10 00:39:06;;;;;;;8.63;7.80;;;;;;;19.46;40.88;100742.91;4621476;31;20063;-58
2023/12/10 00:41:34;;;;;;;7.57;6.88;;;;;;;19.46;40.86;100740.22;4619105;31;20508;-59
2023/12/10 00:44:03;;;;;;;8.55;7.38;;;;;;;19.44;40.79;100730.59;4619365;31;20063;-58
2023/12/10 00:46:30;;;;;;;8.55;7.65;;;;;;;19.44;40.85;100730.59;4618983;31;20064;-53
2023/12/10 00:48:58;;;;;;;10.13;8.20;;;;;;;19.44;40.82;100712.66;4621742;31;20060;-56
2023/12/10 00:51:25;;;;;;;8.48;7.13;;;;;;;19.45;40.73;100700.09;4609117;31;20158;-53
2023/12/10 00:53:53;;;;;;;7.63;6.93;;;;;;;19.44;40.85;100709.97;4618985;31;20059;-54
2023/12/10 00:56:20;;;;;;;8.45;7.65;;;;;;;19.43;40.68;100705.59;4619060;31;20055;-53
2023/12/10 00:58:48;;;;;;;8.68;7.78;;;;;;;19.42;40.84;100714.63;4627192;31;20063;-55
2023/12/10 01:01:15;;;;;;;8.45;7.65;;;;;;;19.44;40.73;100703.75;4608834;31;20064;-54
2023/12/10 01:03:43;;;;;;;8.15;7.25;;;;;;;19.44;40.88;100703.75;4618625;31;20525;-56
2023/12/10 01:06:10;;;;;;;8.60;7.70;;;;;;;19.43;40.94;100710.13;4618597;31;20051;-58
2023/12/10 01:08:38;;;;;;;10.10;7.95;;;;;;;19.41;40.71;100712.09;4621847;31;20059;-58
2023/12/10 01:11:05;;;;;;;9.00;7.45;;;;;;;19.42;40.90;100705.75;4608592;31;20064;-58
2023/12/10 01:13:33;;;;;;;9.98;8.95;;;;;;;19.42;40.77;100724.53;4618721;31;20077;-58
2023/12/10 01:16:00;;;;;;;8.68;7.78;;;;;;;19.42;40.77;100727.22;4618829;31;20519;-56
2023/12/10 01:18:28;;;;;;;8.88;7.97;;;;;;;19.42;40.82;100729.91;4621234;31;20062;-56
2023/12/10 01:20:55;;;;;;;9.02;8.13;;;;;;;19.42;40.91;100738.81;4628593;31;20052;-55
2023/12/10 01:23:23;;;;;;;9.30;8.20;;;;;;;19.40;40.77;100740.75;4618632;31;20055;-55
2023/12/10 01:25:50;;;;;;;9.13;8.23;;;;;;;19.40;40.88;100740.75;4609503;31;20489;-58
2023/12/10 01:28:18;;;;;;;9.70;8.75;;;;;;;19.40;41.13;100745.28;4622818;31;20139;-58
2023/12/10 01:30:45;;;;;;;9.02;8.20;;;;;;;19.41;40.89;100747.00;4611041;31;20507;-58
2023/12/10 01:33:13;;;;;;;8.00;7.20;;;;;;;19.41;40.91;100752.38;4629941;30;20063;-58
2023/12/10 01:35:41;;;;;;;8.93;7.95;;;;;;;19.40;40.76;100761.38;4642141;30;20064;-58
2023/12/10 01:38:09;;;;;;;8.52;7.63;;;;;;;19.40;40.92;100780.19;4626218;31;20448;-59
2023/12/10 01:40:36;;;;;;;8.10;7.30;;;;;;;19.39;40.82;100771.28;4629760;31;20066;-58
2023/12/10 01:43:08;;;;;;;7.93;7.00;;;;;;;19.39;41.08;100776.66;4629036;31;20420;-59
2023/12/10 01:45:36;;;;;;;9.38;8.38;;;;;;;19.39;41.00;100775.81;4628926;31;20055;-54
2023/12/10 01:48:06;;;;;;;8.27;7.40;;;;;;;19.39;41.10;100778.47;4624159;31;20056;-58
2023/12/10 01:50:35;;;;;;;8.90;8.00;;;;;;;19.37;40.94;100767.88;4629053;31;20420;-58
2023/12/10 01:53:03;;;;;;;8.18;7.38;;;;;;;19.37;40.96;100764.34;4628827;31;20067;-52
2023/12/10 01:55:30;;;;;;;9.02;8.07;;;;;;;19.36;41.02;100771.53;4628939;31;20055;-55
2023/12/10 01:57:58;;;;;;;9.13;8.20;;;;;;;19.35;41.00;100772.53;4625613;31;20060;-52
2023/12/10 02:00:26;;;;;;;7.68;6.90;;;;;;;19.36;40.97;100771.53;4629075;31;20404;-55
2023/12/10 02:02:55;;;;;;;8.90;8.00;;;;;;;19.36;40.92;100771.53;4641786;30;20078;-53
2023/12/10 02:05:24;;;;;;;8.80;8.00;;;;;;;19.35;41.02;100772.53;4628420;31;20066;-55
2023/12/10 02:07:53;;;;;;;8.75;7.72;;;;;;;19.37;41.02;100772.41;4625981;31;20063;-56
2023/12/10 02:10:20;;;;;;;7.55;6.80;;;;;;;19.36;41.13;100762.63;4619939;31;20059;-55
2023/12/10 02:12:48;;;;;;;8.40;7.50;;;;;;;19.35;41.08;100769.00;4629081;31;20130;-56
2023/12/10 02:15:20;;;;;;;8.95;8.05;;;;;;;19.35;41.14;100763.63;4627031;31;20059;-54
2023/12/10 02:17:48;;;;;;;8.13;7.32;;;;;;;19.35;41.13;100769.84;4627725;31;20513;-55
2023/12/10 02:20:17;;;;;;;9.10;8.13;;;;;;;19.34;41.02;100753.88;4629412;31;20055;-54
2023/12/10 02:23:09;;;;;;;8.65;7.75;;;;;;;19.35;40.96;100750.19;4629021;31;20055;-54
2023/12/10 02:25:39;;;;;;;9.23;8.32;;;;;;;19.34;41.14;100727.88;4622705;31;20048;-58
2023/12/10 02:28:08;;;;;;;8.80;7.90;;;;;;;19.34;41.03;100732.41;4609726;31;20047;-55
2023/12/10 02:30:36;;;;;;;9.85;8.57;;;;;;;19.34;41.00;100730.56;4620344;31;20056;-53
2023/12/10 02:33:03;;;;;;;8.13;7.35;;;;;;;19.33;41.18;100728.88;4625550;31;20060;-56
2023/12/10 02:35:31;;;;;;;8.23;7.43;;;;;;;19.34;41.16;100735.09;4627851;31;20070;-55
2023/12/10 02:37:59;;;;;;;9.18;8.25;;;;;;;19.35;41.12;100758.25;4628095;31;20062;-54
2023/12/10 02:40:26;;;;;;;9.40;7.82;;;;;;;19.35;41.18;100742.16;4628419;31;20393;-54
2023/12/10 02:42:53;;;;;;;8.52;7.65;;;;;;;19.34;41.14;100749.34;4626716;31;20056;-54
2023/12/10 02:45:21;;;;;;;8.20;7.40;;;;;;;19.33;41.08;100736.94;4626030;31;20513;-56
2023/12/10 02:47:48;;;;;;;8.77;7.70;;;;;;;19.34;41.19;100768.16;4628137;31;20055;-58
2023/12/10 02:50:16;;;;;;;9.32;8.35;;;;;;;19.34;41.28;100761.94;4628678;31;20058;-58
2023/12/10 02:52:43;;;;;;;8.70;7.75;;;;;;;19.34;41.14;100772.66;4626208;31;20055;-58
2023/12/10 02:55:11;;;;;;;9.43;8.43;;;;;;;19.34;41.11;100791.47;4627605;31;20439;-58
2023/12/10 02:57:38;;;;;;;9.40;8.40;;;;;;;19.34;41.14;100788.78;4628579;31;20055;-54
2023/12/10 03:00:08;;;;;;;9.73;8.45;;;;;;;19.34;41.06;100783.41;4628177;31;20059;-55
2023/12/10 03:02:36;;;;;;;8.38;7.57;;;;;;;19.34;41.15;100786.94;4625936;31;20062;-54
2023/12/10 03:05:03;;;;;;;9.27;8.18;;;;;;;19.33;41.27;100793.31;4628101;31;20086;-56
2023/12/10 03:07:31;;;;;;;8.55;7.65;;;;;;;19.34;41.37;100812.94;4627186;31;20059;-54
2023/12/10 03:09:58;;;;;;;9.23;8.30;;;;;;;19.33;41.23;100804.03;4628269;31;20051;-53
2023/12/10 03:12:26;;;;;;;9.32;8.35;;;;;;;19.33;41.35;100806.72;4626330;31;20059;-55
2023/12/10 03:14:54;;;;;;;9.27;8.32;;;;;;;19.34;41.37;100847.84;4628027;31;20055;-55
2023/12/10 03:17:21;;;;;;;9.90;8.32;;;;;;;19.34;41.43;100826.34;4628433;31;20527;-58
2023/12/10 03:19:49;;;;;;;8.77;7.53;;;;;;;19.35;41.50;100841.47;4628378;31;20055;-58
2023/12/10 03:22:16;;;;;;;9.15;8.25;;;;;;;19.34;41.27;100839.78;4625830;31;20059;-58
2023/12/10 03:24:43;;;;;;;10.48;8.60;;;;;;;19.35;41.24;100846.84;4627521;31;20055;-58
2023/12/10 03:27:11;;;;;;;10.07;9.07;;;;;;;19.34;41.38;100839.78;4618227;31;20067;-58
2023/12/10 03:29:38;;;;;;;9.63;8.63;;;;;;;19.33;41.44;100833.56;4614850;31;20068;-58
2023/12/10 03:32:06;;;;;;;10.13;8.07;;;;;;;19.33;41.46;100813.94;4628679;31;20393;-58
2023/12/10 03:34:33;;;;;;;9.63;8.63;;;;;;;19.33;41.44;100825.50;4630926;31;20066;-58
2023/12/10 03:37:01;;;;;;;9.25;8.30;;;;;;;19.33;41.20;100813.94;4630945;31;20074;-58
2023/12/10 03:39:28;;;;;;;8.85;7.95;;;;;;;19.32;41.20;100821.09;4643604;30;20052;-58
2023/12/10 03:41:57;;;;;;;8.90;8.00;;;;;;;19.33;41.24;100825.50;4629003;30;20055;-58
2023/12/10 03:44:24;;;;;;;9.25;8.15;;;;;;;19.32;41.34;100805.00;4631081;31;20051;-58
2023/12/10 03:46:52;;;;;;;7.97;7.18;;;;;;;19.33;41.36;100797.81;4631710;31;20087;-58
2023/12/10 03:49:19;;;;;;;8.82;7.82;;;;;;;19.32;41.36;100785.34;4631060;31;20078;-58
2023/12/10 03:51:46;;;;;;;9.10;7.78;;;;;;;19.32;41.35;100790.72;4628982;31;20055;-58
2023/12/10 03:54:14;;;;;;;8.40;7.50;;;;;;;19.32;41.45;100788.03;4630470;31;20420;-58
2023/12/10 03:56:41;;;;;;;9.38;7.93;;;;;;;19.32;41.31;100780.00;4631244;31;20047;-58
2023/12/10 03:59:09;;;;;;;9.20;7.18;;;;;;;19.32;41.29;100782.69;4643902;30;20055;-58
2023/12/10 04:01:36;;;;;;;8.48;7.57;;;;;;;19.31;41.44;100762.19;4613793;31;20063;-58
2023/12/10 04:04:04;;;;;;;8.57;7.47;;;;;;;19.30;41.25;100745.25;4630089;31;20062;-58
2023/12/10 04:06:31;;;;;;;8.45;7.53;;;;;;;19.30;41.39;100741.72;4630591;31;20059;-58
2023/12/10 04:08:59;;;;;;;8.75;7.63;;;;;;;19.30;41.51;100736.34;4627438;31;20119;-58
2023/12/10 04:11:26;;;;;;;8.23;7.22;;;;;;;19.30;41.32;100717.56;4628172;31;20066;-58
2023/12/10 04:13:53;;;;;;;7.40;6.70;;;;;;;19.29;41.48;100722.06;4630266;31;20089;-58
2023/12/10 04:16:29;;;;;;;8.30;7.47;;;;;;;19.30;41.37;100717.56;4630753;31;20507;-55
2023/12/10 04:18:56;;;;;;;9.57;7.75;;;;;;;19.28;41.45;100714.97;4630593;31;20428;-56
2023/12/10 04:21:24;;;;;;;8.57;7.72;;;;;;;19.30;41.37;100747.09;4627732;31;20051;-56
2023/12/10 04:23:52;;;;;;;7.95;7.15;;;;;;;19.31;41.40;100727.31;4630114;31;20134;-54
2023/12/10 04:26:19;;;;;;;8.02;6.97;;;;;;;19.30;41.46;100729.13;4630397;31;20427;-52
2023/12/10 04:28:47;;;;;;;7.72;7.00;;;;;;;19.29;41.31;100722.06;4606946;31;20071;-56
2023/12/10 04:31:15;;;;;;;8.70;7.80;;;;;;;19.30;41.36;100713.03;4617762;31;20055;-56
2023/12/10 04:33:44;;;;;;;8.23;7.38;;;;;;;19.30;41.42;100688.03;4630314;31;20063;-54
2023/12/10 04:36:13;;;;;;;7.53;6.82;;;;;;;19.30;41.38;100682.66;4630684;31;20067;-58
2023/12/10 04:38:41;;;;;;;8.68;7.57;;;;;;;19.30;41.36;100717.56;4629334;31;20052;-58
2023/12/10 04:41:08;;;;;;;7.82;7.03;;;;;;;19.30;41.26;100701.44;4627650;31;20413;-58
2023/12/10 04:43:36;;;;;;;6.97;6.28;;;;;;;19.29;41.38;100716.72;4630081;31;20062;-58
2023/12/10 04:46:04;;;;;;;7.78;6.80;;;;;;;19.29;41.52;100697.91;4630680;31;20078;-58
2023/12/10 04:48:32;;;;;;;7.38;6.60;;;;;;;19.29;41.45;100707.81;4629518;31;20412;-58
2023/12/10 04:51:00;;;;;;;7.88;7.07;;;;;;;19.29;41.43;100722.06;4627506;31;20052;-58
2023/12/10 04:53:27;;;;;;;7.97;7.18;;;;;;;19.29;41.29;100732.81;4630275;31;20055;-59
2023/12/10 04:55:55;;;;;;;6.97;6.28;;;;;;;19.29;41.53;100708.66;4630008;31;20119;-55
2023/12/10 04:58:22;;;;;;;6.75;6.15;;;;;;;19.29;41.39;100726.59;4629639;31;20054;-54
2023/12/10 05:00:49;;;;;;;7.10;6.40;;;;;;;19.29;41.43;100737.34;4627901;31;20071;-53
2023/12/10 05:03:17;;;;;;;7.38;6.68;;;;;;;19.29;41.51;100750.75;4630009;31;20059;-56
2023/12/10 05:05:45;;;;;;;7.93;6.88;;;;;;;19.28;41.46;100749.88;4629477;31;20067;-57
2023/12/10 05:08:12;;;;;;;8.15;7.30;;;;;;;19.29;41.44;100746.22;4629264;31;20452;-58
2023/12/10 05:10:40;;;;;;;6.97;6.28;;;;;;;19.28;41.50;100739.13;4627999;31;20064;-58
2023/12/10 05:13:08;;;;;;;7.47;6.68;;;;;;;19.27;41.54;100735.63;4628392;31;20416;-58
2023/12/10 05:15:36;;;;;;;6.95;6.07;;;;;;;19.27;41.63;100734.78;4629482;31;20055;-57
2023/12/10 05:18:04;;;;;;;7.63;6.80;;;;;;;19.27;41.38;100740.13;4629443;31;20070;-54
2023/12/10 05:20:31;;;;;;;6.88;6.10;;;;;;;19.26;41.40;100758.06;4627377;31;20067;-52
2023/12/10 05:22:59;;;;;;;7.47;6.68;;;;;;;19.27;41.39;100766.97;4629566;31;20077;-54
2023/12/10 05:25:28;;;;;;;7.07;6.20;;;;;;;19.26;41.48;100784.06;4629484;31;20512;-56
2023/12/10 05:27:55;;;;;;;6.88;6.18;;;;;;;19.26;41.43;100782.22;4628664;31;20059;-58
2023/12/10 05:30:23;;;;;;;7.03;6.32;;;;;;;19.26;41.45;100758.06;4605142;31;20060;-58
2023/12/10 05:32:50;;;;;;;7.75;6.93;;;;;;;19.26;41.45;100744.66;4630020;31;20055;-58
2023/12/10 05:35:18;;;;;;;6.32;5.68;;;;;;;19.25;41.35;100748.34;4629358;31;20424;-58
2023/12/10 05:37:45;;;;;;;6.75;5.78;;;;;;;19.24;41.60;100760.06;4628241;31;20051;-55
2023/12/10 05:40:13;;;;;;;7.60;6.40;;;;;;;19.25;41.67;100772.50;4626893;31;20078;-55
2023/12/10 05:42:40;;;;;;;6.93;5.72;;;;;;;19.25;41.54;100771.63;4629375;31;20066;-55
2023/12/10 05:45:08;;;;;;;7.18;6.47;;;;;;;19.24;41.50;100786.91;4641332;30;20066;-56
2023/12/10 05:47:36;;;;;;;7.78;6.75;;;;;;;19.25;41.46;100796.66;4628121;31;20082;-58
2023/12/10 05:50:03;;;;;;;7.00;5.95;;;;;;;19.25;41.45;100796.66;4626592;31;20397;-58
2023/12/10 05:52:31;;;;;;;6.70;6.00;;;;;;;19.24;41.55;100813.75;4628770;31;20055;-58
2023/12/10 05:54:58;;;;;;;7.20;6.22;;;;;;;19.25;41.54;100833.38;4628765;31;20059;-58
2023/12/10 05:57:27;;;;;;;6.80;6.10;;;;;;;19.25;41.56;100830.69;4628535;31;20496;-55
2023/12/10 05:59:55;;;;;;;7.22;5.90;;;;;;;19.24;41.56;100821.78;4639599;30;20055;-54
2023/12/10 06:02:22;;;;;;;7.00;6.30;;;;;;;19.24;41.39;100854.00;4628639;31;20134;-53
2023/12/10 06:04:50;;;;;;;6.03;5.43;;;;;;;19.25;41.61;100877.16;4628809;31;20066;-55
2023/12/10 06:07:17;;;;;;;7.20;6.50;;;;;;;19.25;41.56;100873.63;4627833;31;20059;-56
2023/12/10 06:09:45;;;;;;;7.03;6.22;;;;;;;19.24;41.46;100870.09;4625820;31;20420;-54
2023/12/10 06:12:12;;;;;;;7.63;5.85;;;;;;;19.25;41.47;100871.78;4621237;31;20062;-56
2023/12/10 06:14:40;;;;;;;6.60;5.90;;;;;;;19.24;41.31;100871.91;4629320;31;20055;-54
2023/12/10 06:17:09;;;;;;;6.75;5.50;;;;;;;19.23;41.56;100876.44;4627510;31;20060;-53
2023/12/10 06:19:37;;;;;;;6.50;5.80;;;;;;;19.25;41.62;100861.06;4626616;31;20063;-53
2023/12/10 06:22:04;;;;;;;5.93;5.30;;;;;;;19.26;41.72;100857.38;4628836;31;20067;-56
2023/12/10 06:24:31;;;;;;;6.85;6.15;;;;;;;19.26;41.67;100854.69;4628721;31;20063;-55
2023/12/10 06:26:59;;;;;;;6.57;5.85;;;;;;;19.26;41.67;100876.19;4627507;31;20063;-58
2023/12/10 06:29:26;;;;;;;7.45;5.60;;;;;;;19.26;41.81;100894.97;4621628;31;20044;-58
2023/12/10 06:31:54;;;;;;;6.53;5.85;;;;;;;19.26;41.56;100913.75;4611222;31;20074;-58
2023/12/10 06:34:22;;;;;;;6.28;5.63;;;;;;;19.26;41.66;100908.38;4628356;31;20063;-58
2023/12/10 06:36:49;;;;;;;6.80;5.55;;;;;;;19.26;41.74;100905.69;4627142;31;20059;-58
2023/12/10 06:39:17;;;;;;;6.32;5.45;;;;;;;19.26;41.66;100912.91;4626910;31;20070;-58
2023/12/10 06:41:45;;;;;;;5.95;5.32;;;;;;;19.25;41.83;100922.78;4628120;31;20527;-58
2023/12/10 06:44:15;;;;;;;5.65;4.90;;;;;;;19.26;41.92;100912.91;4628618;31;20056;-58
2023/12/10 06:46:42;;;;;;;5.20;4.63;;;;;;;19.25;41.62;100917.44;4627394;31;20082;-58
2023/12/10 06:49:09;;;;;;;5.68;4.70;;;;;;;19.24;41.87;100915.72;4625583;31;20060;-58
2023/12/10 06:51:37;;;;;;;5.10;4.57;;;;;;;19.25;41.68;100905.84;4628402;31;20059;-58
2023/12/10 06:54:04;;;;;;;4.68;3.97;;;;;;;19.24;41.59;100905.00;4628288;31;20077;-58
2023/12/10 06:56:38;;;;;;;6.07;4.97;;;;;;;19.24;41.59;100918.41;4626847;31;20056;-58
2023/12/10 06:59:07;;;;;;;5.78;4.90;;;;;;;19.23;41.52;100911.31;4627782;31;20063;-58
2023/12/10 07:01:37;;;;;;;4.43;3.85;;;;;;;19.23;41.61;100915.84;4629672;31;20059;-58
2023/12/10 07:04:07;;;;;;;5.38;4.30;;;;;;;19.23;41.23;100916.69;4631705;31;20063;-58
2023/12/10 07:06:35;;;;;;;4.90;4.00;;;;;;;19.22;41.58;100904.25;4628631;31;20537;-55
2023/12/10 07:09:06;;;;;;;5.28;4.78;;;;;;;19.21;41.57;100915.97;4632019;31;20071;-58
2023/12/10 07:11:34;;;;;;;4.75;4.15;;;;;;;19.22;41.59;100931.09;4631755;31;20055;-58
2023/12/10 07:14:01;;;;;;;4.97;4.30;;;;;;;19.22;41.60;100941.84;4631904;31;20051;-58
2023/12/10 07:16:29;;;;;;;4.60;4.00;;;;;;;19.21;41.60;100944.66;4627664;31;20064;-54
2023/12/10 07:18:56;;;;;;;5.25;4.40;;;;;;;19.21;41.57;100950.88;4631406;31;20389;-53
2023/12/10 07:21:24;;;;;;;4.20;3.75;;;;;;;19.21;41.57;100963.44;4631697;31;20416;-54
2023/12/10 07:23:51;;;;;;;4.80;4.18;;;;;;;19.21;41.51;100956.25;4631845;31;20055;-55
2023/12/10 07:26:23;;;;;;;4.43;4.03;;;;;;;19.21;41.49;100945.50;4626993;31;20056;-55
2023/12/10 07:28:51;;;;;;;4.45;4.03;;;;;;;19.22;41.75;100951.72;4631481;31;20047;-55
2023/12/10 07:31:18;;;;;;;4.20;3.80;;;;;;;19.22;41.58;100962.44;4615724;31;20489;-53
2023/12/10 07:33:46;;;;;;;5.65;4.50;;;;;;;19.21;41.46;100975.03;4625899;31;20059;-55
2023/12/10 07:36:14;;;;;;;4.22;3.83;;;;;;;19.22;41.52;100978.56;4629438;31;20526;-58
2023/12/10 07:38:41;;;;;;;4.45;3.90;;;;;;;19.21;41.67;100990.28;4631013;31;20385;-59
2023/12/10 07:41:09;;;;;;;4.78;3.78;;;;;;;19.22;41.47;100989.28;4631215;31;20075;-59
2023/12/10 07:43:36;;;;;;;4.60;3.92;;;;;;;19.21;41.41;100983.06;4630361;31;20055;-59
2023/12/10 07:46:04;;;;;;;4.60;4.10;;;;;;;19.22;41.49;100981.25;4628701;31;20055;-58
2023/12/10 07:48:33;;;;;;;6.05;5.03;;;;;;;19.22;41.56;100979.41;4630632;31;20051;-59
2023/12/10 07:51:02;;;;;;;4.40;3.78;;;;;;;19.22;41.50;100978.56;4629667;31;20070;-55
2023/12/10 07:53:29;;;;;;;5.75;4.40;;;;;;;19.21;41.42;100988.44;4629959;31;20059;-53
2023/12/10 07:55:56;;;;;;;7.22;4.00;;;;;;;19.22;41.37;100986.59;4628934;31;20056;-51
2023/12/10 07:58:24;;;;;;;5.03;3.92;;;;;;;19.22;41.51;100995.50;4630863;31;20055;-52
2023/12/10 08:00:51;;;;;;;5.55;4.25;;;;;;;19.21;41.63;100993.81;4631099;31;20059;-53
2023/12/10 08:03:19;;;;;;;4.78;4.03;;;;;;;19.22;41.59;101000.03;4629935;31;20055;-54
2023/12/10 08:05:46;;;;;;;4.70;3.95;;;;;;;19.21;41.54;100988.44;4628877;31;20063;-57
2023/12/10 08:08:14;;;;;;;5.57;4.30;;;;;;;19.21;41.37;100983.06;4631057;31;20077;-58
2023/12/10 08:10:41;;;;;;;4.57;3.63;;;;;;;19.20;41.41;100981.38;4625565;31;20408;-58
2023/12/10 08:13:08;;;;;;;5.18;3.95;;;;;;;19.21;41.39;100988.44;4628144;31;20063;-58
2023/12/10 08:15:36;;;;;;;4.28;3.75;;;;;;;19.21;41.58;100991.13;4629086;31;20056;-54
2023/12/10 08:18:05;;;;;;;4.43;3.75;;;;;;;19.19;41.37;101000.28;4630862;31;20063;-58
2023/12/10 08:20:32;;;;;;;5.00;3.70;;;;;;;19.19;41.43;101017.22;4630633;31;20059;-58
2023/12/10 08:23:00;;;;;;;4.93;3.58;;;;;;;19.20;41.44;101024.31;4628387;31;20056;-58
2023/12/10 08:25:27;;;;;;;4.88;3.63;;;;;;;19.21;41.47;101017.97;4628877;31;20055;-58
2023/12/10 08:27:58;;;;;;;4.90;3.90;;;;;;;19.21;41.52;101026.03;4642649;30;20409;-58
2023/12/10 08:30:26;;;;;;;4.82;3.92;;;;;;;19.20;41.30;101027.00;4623394;31;20051;-58
2023/12/10 08:32:53;;;;;;;4.32;3.72;;;;;;;19.22;41.49;101032.25;4609575;31;20056;-58
2023/12/10 08:35:21;;;;;;;5.47;4.07;;;;;;;19.21;41.68;101039.44;4628419;31;20064;-57
2023/12/10 08:37:48;;;;;;;4.75;3.78;;;;;;;19.22;41.55;101034.91;4630939;31;20059;-54
2023/12/10 08:40:16;;;;;;;4.70;4.03;;;;;;;19.22;41.72;101051.88;4630217;31;20111;-55
2023/12/10 08:42:44;;;;;;;4.97;4.13;;;;;;;19.23;41.58;101055.41;4628944;31;20055;-55
2023/12/10 08:45:12;;;;;;;4.18;3.72;;;;;;;19.23;41.69;101052.72;4628721;31;20060;-52
2023/12/10 08:47:39;;;;;;;4.30;3.42;;;;;;;19.26;41.77;101050.63;4630444;31;20051;-58
2023/12/10 08:50:07;;;;;;;5.18;3.88;;;;;;;19.27;42.14;101055.03;4630176;31;20066;-58
2023/12/10 08:52:35;;;;;;;4.60;3.70;;;;;;;19.31;42.02;101065.53;4628714;31;20066;-58
2023/12/10 08:55:02;;;;;;;5.20;3.20;;;;;;;19.31;41.92;101061.00;4629095;31;20408;-58
2023/12/10 08:57:30;;;;;;;5.65;3.80;;;;;;;19.31;42.15;101044.03;4629880;31;20063;-58
2023/12/10 09:00:00;;;;;;;5.22;3.38;;;;;;;19.31;42.04;101030.63;4629796;31;20055;-58
2023/12/10 09:02:29;;;;;;;4.65;3.72;;;;;;;19.32;41.95;101027.78;4628150;31;20082;-58
2023/12/10 09:04:57;;;;;;;6.90;3.75;;;;;;;19.34;42.19;101030.38;4628435;31;20063;-58
2023/12/10 09:07:26;;;;;;;6.10;4.55;;;;;;;19.35;41.91;101042.81;4630159;31;20416;-57
2023/12/10 09:09:59;;;;;;;4.93;3.50;;;;;;;19.36;41.84;101061.47;4630270;31;20055;-58
2023/12/10 09:12:28;;;;;;;5.57;4.15;;;;;;;19.36;41.97;101082.09;4626716;31;20389;-58
2023/12/10 09:14:56;;;;;;;5.32;4.47;;;;;;;19.35;41.66;101105.41;4630108;31;20068;-58
2023/12/10 09:17:24;;;;;;;6.30;5.03;;;;;;;19.35;41.08;101121.50;4629540;31;20059;-59
2023/12/10 09:19:51;;;;;;;6.30;5.10;;;;;;;19.33;40.96;101123.47;4629576;31;20055;-57
2023/12/10 09:22:19;;;;;;;6.25;5.28;;;;;;;19.32;40.64;101126.28;4628932;31;20064;-57
2023/12/10 09:24:49;;;;;;;6.93;4.80;;;;;;;19.29;40.48;101108.59;4629033;31;20067;-56
2023/12/10 09:27:17;;;;;;;6.07;5.13;;;;;;;19.30;40.32;101096.03;4641579;30;20059;-55
2023/12/10 09:29:45;;;;;;;6.00;4.50;;;;;;;19.30;40.28;101087.97;4627369;31;20074;-55
2023/12/10 09:32:15;;;;;;;6.88;5.22;;;;;;;19.30;40.35;101086.16;4622818;31;20059;-56
2023/12/10 09:34:43;;;;;;;5.57;4.40;;;;;;;19.31;40.38;101089.69;4611894;31;20495;-55
2023/12/10 09:37:14;;;;;;;5.55;4.38;;;;;;;19.30;40.11;101070.03;4629014;31;20051;-56
2023/12/10 09:39:41;;;;;;;6.15;4.40;;;;;;;19.31;40.06;101052.09;4627706;31;20056;-57
2023/12/10 09:42:09;;;;;;;7.18;5.32;;;;;;;19.30;39.75;101070.03;4627652;31;20055;-55
2023/12/10 09:44:37;;;;;;;6.30;5.20;;;;;;;19.29;39.74;101086.28;4628707;31;20064;-57
2023/12/10 09:47:09;;;;;;;6.35;4.75;;;;;;;19.30;39.85;101085.28;4628948;31;20078;-57
2023/12/10 09:49:38;;;;;;;7.07;4.80;;;;;;;19.30;39.95;101093.34;4627613;31;20055;-59
2023/12/10 09:52:07;;;;;;;5.63;4.35;;;;;;;19.31;39.94;101100.41;4628199;31;20060;-59
2023/12/10 09:54:42;;;;;;;6.40;4.72;;;;;;;19.30;39.74;101104.09;4628660;31;20059;-59
2023/12/10 09:57:11;;;;;;;5.32;4.30;;;;;;;19.31;39.81;101109.31;4629338;31;20055;-57
2023/12/10 09:59:39;;;;;;;4.10;3.63;;;;;;;19.33;39.98;101103.84;4625509;31;20056;-57
2023/12/10 10:02:10;;;;;;;3.88;2.90;;;;;;;19.34;40.42;101102.84;4628619;31;20058;-57
2023/12/10 10:04:41;;;;;;;4.07;3.47;;;;;;;19.36;40.22;101098.19;4629089;31;20055;-57
2023/12/10 10:07:10;;;;;;;4.70;3.50;;;;;;;19.36;40.22;101095.50;4628366;31;20062;-56
2023/12/10 10:09:38;;;;;;;3.90;3.30;;;;;;;19.36;40.28;101087.47;4626213;31;20055;-57
2023/12/10 10:12:07;;;;;;;6.10;3.80;;;;;;;19.35;40.32;101086.59;4626429;31;20063;-57
2023/12/10 10:14:35;;;;;;;5.78;4.25;;;;;;;19.34;40.29;101084.06;4628906;31;20062;-57
2023/12/10 10:17:03;;;;;;;6.47;4.80;;;;;;;19.33;40.54;101088.59;4627659;31;20063;-59
2023/12/10 10:19:30;;;;;;;6.10;5.03;;;;;;;19.33;40.57;101095.78;4626777;31;20051;-59
2023/12/10 10:21:58;;;;;;;5.50;4.15;;;;;;;19.32;40.62;101089.53;4627866;31;20066;-59
2023/12/10 10:24:26;;;;;;;5.32;4.00;;;;;;;19.34;40.35;101094.81;4628320;31;20051;-59
2023/12/10 10:26:54;;;;;;;6.05;3.90;;;;;;;19.33;40.50;101088.59;4628225;31;20055;-58
2023/12/10 10:29:25;;;;;;;4.90;3.85;;;;;;;19.35;40.38;101080.41;4626421;31;20056;-59
2023/12/10 10:31:57;;;;;;;4.18;3.50;;;;;;;19.35;40.19;101075.88;4609655;31;20094;-59
2023/12/10 10:34:25;;;;;;;4.85;3.20;;;;;;;19.37;40.34;101073.09;4603057;31;20052;-59
2023/12/10 10:36:52;;;;;;;5.38;3.42;;;;;;;19.36;40.43;101074.88;4621178;31;20059;-55
2023/12/10 10:39:20;;;;;;;6.68;4.03;;;;;;;19.35;40.16;101075.88;4627434;31;20074;-57
2023/12/10 10:41:49;;;;;;;6.20;3.78;;;;;;;19.36;40.17;101076.72;4626639;31;20512;-60
2023/12/10 10:44:16;;;;;;;6.68;4.30;;;;;;;19.35;40.27;101089.28;4640950;30;20059;-60
2023/12/10 10:46:44;;;;;;;3.92;2.95;;;;;;;19.40;40.63;101083.53;4625862;31;20051;-63
2023/12/10 10:49:14;;;;;;;4.82;3.42;;;;;;;19.46;40.67;101093.78;4627915;31;20067;-61
2023/12/10 10:51:42;;;;;;;5.45;3.60;;;;;;;19.49;40.55;101096.22;4622203;31;20052;-61
2023/12/10 10:54:09;;;;;;;4.78;3.00;;;;;;;19.49;40.67;101109.66;4615982;31;20060;-63
2023/12/10 10:56:37;;;;;;;4.45;3.50;;;;;;;19.47;40.63;101103.53;4623326;31;20531;-64
2023/12/10 10:59:32;;;;;;;4.30;3.47;;;;;;;19.47;40.35;101106.22;4628232;31;20055;-62
2023/12/10 11:02:06;;;;;;;5.28;3.95;;;;;;;19.45;40.04;101087.56;4622756;31;20063;-62
2023/12/10 11:04:47;;;;;;;4.72;3.95;;;;;;;19.44;40.13;101091.22;4625235;31;20488;-65
2023/12/10 11:07:16;;;;;;;4.38;3.20;;;;;;;19.43;40.02;101091.34;4628370;31;20051;-64
2023/12/10 11:09:55;;;;;;;5.15;4.50;;;;;;;19.43;40.56;101097.56;4627796;31;20058;-65
2023/12/10 11:12:45;;;;;;;6.65;4.78;;;;;;;19.42;41.48;101092.34;4624631;31;20060;-63
2023/12/10 11:15:16;;;;;;;6.97;4.65;;;;;;;19.42;43.20;101086.97;4614695;31;20055;-60
2023/12/10 11:17:58;;;;;;;5.75;4.47;;;;;;;19.41;43.70;101074.53;4628073;31;20082;-62
2023/12/10 11:20:34;;;;;;;5.43;4.07;;;;;;;19.43;44.45;101080.63;4624514;31;20052;-59
2023/12/10 11:23:03;;;;;;;5.68;4.50;;;;;;;19.47;44.79;101074.00;4628220;31;20082;-59
2023/12/10 11:25:31;;;;;;;6.03;4.50;;;;;;;19.51;44.17;101067.41;4628059;31;20055;-59
2023/12/10 11:28:01;;;;;;;5.95;4.57;;;;;;;19.54;43.31;101080.59;4626456;31;20424;-59
2023/12/10 11:30:29;;;;;;;5.85;4.72;;;;;;;19.57;42.17;101083.03;4628433;31;20416;-55